Time;durP1;ratioP1;P1;durP2;ratioP2;P2;SDS_P1;SDS_P2;PMS_P1;PMS_P2;Temp;Humidity;BMP_temperature;BMP_pressure;BME280_temperature;BME280_humidity;BME280_pressure;Samples;Min_cycle;Max_cycle;Signal;HPM_P1;HPM_P2
2023/05/29 00:02:08;;;;;;;12.95;2.67;;;10.30;99.90;;;;;;5119430;28;20040;-57
2023/05/29 00:04:35;;;;;;;15.55;2.60;;;10.20;99.90;;;;;;5118833;28;20047;-58
2023/05/29 00:07:01;;;;;;;16.77;2.65;;;10.10;99.90;;;;;;5119871;28;20147;-58
2023/05/29 00:09:27;;;;;;;15.45;2.53;;;10.20;99.90;;;;;;5118484;28;20073;-58
2023/05/29 00:11:53;;;;;;;15.32;2.22;;;10.00;99.90;;;;;;5120371;28;20058;-58
2023/05/29 00:14:19;;;;;;;15.00;2.63;;;10.10;99.90;;;;;;5119500;28;20039;-58
2023/05/29 00:16:50;;;;;;;15.57;2.40;;;10.10;99.90;;;;;;5120658;28;20040;-58
2023/05/29 00:19:19;;;;;;;17.45;3.33;;;10.00;99.90;;;;;;5119536;28;20039;-57
2023/05/29 00:21:47;;;;;;;14.05;2.67;;;10.10;99.90;;;;;;5118449;28;20040;-57
2023/05/29 00:24:14;;;;;;;17.88;2.70;;;10.00;99.90;;;;;;5119160;28;20059;-58
2023/05/29 00:26:41;;;;;;;14.02;2.92;;;10.10;99.90;;;;;;5119664;28;20050;-57
2023/05/29 00:29:06;;;;;;;13.65;2.45;;;10.00;99.90;;;;;;5119907;28;20236;-58
2023/05/29 00:31:32;;;;;;;10.25;2.20;;;10.00;99.90;;;;;;5118857;28;20035;-59
2023/05/29 00:33:57;;;;;;;16.02;2.95;;;10.00;99.90;;;;;;5119946;28;20067;-57
2023/05/29 00:36:25;;;;;;;16.20;2.83;;;10.00;99.90;;;;;;5118229;28;20048;-55
2023/05/29 00:38:50;;;;;;;15.55;2.55;;;10.00;99.90;;;;;;5119599;28;20051;-59
2023/05/29 00:41:16;;;;;;;13.07;2.70;;;9.90;99.90;;;;;;5119480;28;20046;-57
2023/05/29 00:43:43;;;;;;;13.43;2.78;;;10.00;99.90;;;;;;5118081;28;20044;-58
2023/05/29 00:46:12;;;;;;;14.18;2.58;;;9.90;99.90;;;;;;5119673;28;20465;-58
2023/05/29 00:48:38;;;;;;;12.80;2.75;;;10.00;99.90;;;;;;5118843;28;20531;-57
2023/05/29 00:51:04;;;;;;;16.95;2.40;;;10.00;99.90;;;;;;5120071;28;20043;-58
2023/05/29 00:53:30;;;;;;;15.73;3.03;;;10.10;99.90;;;;;;5119009;28;20121;-58
2023/05/29 00:55:56;;;;;;;16.27;2.90;;;10.00;99.90;;;;;;5119152;28;20063;-57
2023/05/29 00:58:21;;;;;;;14.48;2.88;;;10.00;99.90;;;;;;5119344;28;20093;-58
2023/05/29 01:00:47;;;;;;;14.85;2.65;;;10.00;99.90;;;;;;5118817;28;20066;-58
2023/05/29 01:03:18;;;;;;;15.23;2.60;;;10.10;99.90;;;;;;5119499;28;20483;-57
2023/05/29 01:05:45;;;;;;;12.40;2.38;;;10.10;99.90;;;;;;5118845;28;20098;-57
2023/05/29 01:08:11;;;;;;;14.20;2.90;;;10.10;99.90;;;;;;5118737;28;20043;-57
2023/05/29 01:10:36;;;;;;;17.85;2.88;;;10.10;99.90;;;;;;5118935;28;20031;-57
2023/05/29 01:13:23;;;;;;;14.85;2.65;;;10.10;99.90;;;;;;5119161;28;20046;-58
2023/05/29 01:16:12;;;;;;;17.80;2.65;;;10.10;99.90;;;;;;5119149;28;20048;-57
2023/05/29 01:19:08;;;;;;;14.52;2.67;;;10.10;99.90;;;;;;5118466;28;20058;-57
2023/05/29 01:22:01;;;;;;;11.70;3.08;;;10.10;99.90;;;;;;5115076;28;20043;-58
2023/05/29 01:24:50;;;;;;;17.35;3.08;;;10.10;99.90;;;;;;5119080;28;20051;-57
2023/05/29 01:27:18;;;;;;;14.75;2.90;;;10.10;99.90;;;;;;5118577;28;20073;-58
2023/05/29 01:29:47;;;;;;;14.85;2.83;;;10.10;99.90;;;;;;5119724;28;20040;-58
2023/05/29 01:32:12;;;;;;;13.88;3.40;;;10.10;99.90;;;;;;5118540;28;20048;-57
2023/05/29 01:34:38;;;;;;;15.60;2.60;;;10.10;99.90;;;;;;5118823;28;20044;-57
2023/05/29 01:37:04;;;;;;;12.80;2.85;;;10.10;99.90;;;;;;5120488;28;20081;-58
2023/05/29 01:39:32;;;;;;;14.32;3.38;;;10.10;99.90;;;;;;5122953;28;20124;-57
2023/05/29 01:41:59;;;;;;;16.35;3.15;;;10.20;99.90;;;;;;5123429;28;20051;-58
2023/05/29 01:44:25;;;;;;;21.67;3.65;;;10.10;99.90;;;;;;5122347;28;20052;-58
2023/05/29 01:46:52;;;;;;;17.45;2.55;;;10.10;99.90;;;;;;5123032;28;20048;-57
2023/05/29 01:49:18;;;;;;;15.00;3.40;;;10.20;99.90;;;;;;5122510;28;20065;-57
2023/05/29 01:51:44;;;;;;;15.35;3.15;;;10.20;99.90;;;;;;5122658;28;20043;-58
2023/05/29 01:54:10;;;;;;;13.57;3.00;;;10.20;99.90;;;;;;5122343;28;20056;-58
2023/05/29 01:56:36;;;;;;;17.85;2.78;;;10.20;99.90;;;;;;5122327;28;20078;-57
2023/05/29 01:59:03;;;;;;;15.05;2.85;;;10.20;99.90;;;;;;5123040;28;20126;-58
2023/05/29 02:01:29;;;;;;;16.63;3.20;;;10.20;99.90;;;;;;5121850;28;20051;-57
2023/05/29 02:03:55;;;;;;;14.50;3.25;;;10.10;99.90;;;;;;5123316;28;20039;-58
2023/05/29 02:06:21;;;;;;;11.75;2.65;;;10.10;99.90;;;;;;5122176;28;20054;-57
2023/05/29 02:08:47;;;;;;;15.80;2.67;;;10.10;99.90;;;;;;5122285;28;20089;-57
2023/05/29 02:11:13;;;;;;;15.60;3.30;;;10.10;99.90;;;;;;5122248;28;21546;-58
2023/05/29 02:13:38;;;;;;;16.25;2.60;;;10.10;99.90;;;;;;5122037;28;20071;-57
2023/05/29 02:16:04;;;;;;;16.83;3.45;;;10.10;99.90;;;;;;5122328;28;20048;-58
2023/05/29 02:18:31;;;;;;;11.65;2.20;;;10.00;99.90;;;;;;5121814;28;20061;-57
2023/05/29 02:20:56;;;;;;;12.90;2.38;;;10.00;99.90;;;;;;5122851;28;20129;-56
2023/05/29 02:23:22;;;;;;;15.55;2.65;;;10.00;99.90;;;;;;5121780;28;20044;-57
2023/05/29 02:25:48;;;;;;;16.33;2.70;;;10.20;99.90;;;;;;5122136;28;20133;-57
2023/05/29 02:28:14;;;;;;;13.98;2.90;;;10.20;99.90;;;;;;5103706;28;20123;-57
2023/05/29 02:30:39;;;;;;;15.98;2.67;;;10.20;99.90;;;;;;5121206;28;20043;-57
2023/05/29 02:33:06;;;;;;;18.77;3.47;;;10.30;99.90;;;;;;5120862;28;20063;-57
2023/05/29 02:35:32;;;;;;;13.98;2.75;;;10.30;99.90;;;;;;5121260;28;20043;-56
2023/05/29 02:37:57;;;;;;;14.07;3.90;;;10.30;99.90;;;;;;5122698;28;20099;-57
2023/05/29 02:40:23;;;;;;;13.23;2.40;;;10.40;99.90;;;;;;5121348;28;20044;-57
2023/05/29 02:42:50;;;;;;;19.60;3.42;;;10.30;99.90;;;;;;5122043;28;20051;-58
2023/05/29 02:45:16;;;;;;;16.42;2.53;;;10.30;99.90;;;;;;5121565;28;20040;-58
2023/05/29 02:47:41;;;;;;;11.07;3.10;;;10.30;99.90;;;;;;5121016;28;20051;-57
2023/05/29 02:50:08;;;;;;;15.70;2.47;;;10.20;99.90;;;;;;5121714;28;20445;-58
2023/05/29 02:52:34;;;;;;;12.32;2.70;;;10.30;99.90;;;;;;5121080;28;20075;-58
2023/05/29 02:55:00;;;;;;;15.20;2.67;;;10.20;99.90;;;;;;5121848;28;20061;-57
2023/05/29 02:57:26;;;;;;;13.18;2.80;;;10.20;99.90;;;;;;5120963;28;20047;-56
2023/05/29 02:59:52;;;;;;;12.75;2.50;;;10.30;99.90;;;;;;5121711;28;20044;-58
2023/05/29 03:02:18;;;;;;;17.30;2.83;;;10.20;99.90;;;;;;5119802;28;20054;-57
2023/05/29 03:04:44;;;;;;;12.73;2.58;;;10.40;99.90;;;;;;5121047;28;20036;-57
2023/05/29 03:07:10;;;;;;;13.75;3.13;;;10.40;99.90;;;;;;5119957;28;20184;-57
2023/05/29 03:09:36;;;;;;;15.38;2.75;;;10.30;99.90;;;;;;5120647;28;20043;-57
2023/05/29 03:12:02;;;;;;;14.75;3.28;;;10.40;99.90;;;;;;5121838;28;20040;-56
2023/05/29 03:14:28;;;;;;;11.95;2.50;;;10.30;99.90;;;;;;5120499;28;20119;-57
2023/05/29 03:16:54;;;;;;;11.32;2.25;;;10.40;99.90;;;;;;5120169;28;20060;-58
2023/05/29 03:19:20;;;;;;;11.98;2.92;;;10.50;99.90;;;;;;5121113;28;20046;-57
2023/05/29 03:21:46;;;;;;;11.13;2.80;;;10.50;99.90;;;;;;5120987;28;20036;-57
2023/05/29 03:24:15;;;;;;;11.02;2.80;;;10.50;99.90;;;;;;5121003;28;20039;-58
2023/05/29 03:26:40;;;;;;;14.38;2.58;;;10.50;99.90;;;;;;5120364;28;20069;-57
2023/05/29 03:29:07;;;;;;;14.13;2.90;;;10.40;99.90;;;;;;5121204;28;20043;-57
2023/05/29 03:31:32;;;;;;;13.45;2.47;;;10.30;99.90;;;;;;5119979;28;20426;-56
2023/05/29 03:34:00;;;;;;;12.98;2.13;;;10.30;99.90;;;;;;5121175;28;20063;-62
2023/05/29 03:36:26;;;;;;;9.57;2.83;;;10.30;99.90;;;;;;5120617;28;20042;-57
2023/05/29 03:38:52;;;;;;;14.25;4.13;;;10.30;99.90;;;;;;5120545;28;20062;-58
2023/05/29 03:41:17;;;;;;;12.18;2.22;;;10.30;99.90;;;;;;5120616;28;20044;-57
2023/05/29 03:43:43;;;;;;;10.95;2.45;;;10.30;99.90;;;;;;5120272;28;20040;-57
2023/05/29 03:46:09;;;;;;;11.93;2.45;;;10.30;99.90;;;;;;5121159;28;20419;-58
2023/05/29 03:48:34;;;;;;;14.43;3.30;;;10.40;99.90;;;;;;5119947;28;20597;-57
2023/05/29 03:51:00;;;;;;;12.05;2.20;;;10.40;99.90;;;;;;5120875;28;20100;-58
2023/05/29 03:53:26;;;;;;;14.38;2.80;;;10.30;99.90;;;;;;5119829;28;20044;-57
2023/05/29 03:55:51;;;;;;;15.52;4.38;;;10.40;99.90;;;;;;5119836;28;20056;-57
2023/05/29 03:58:17;;;;;;;11.55;2.53;;;10.30;99.90;;;;;;5120356;28;20522;-58
2023/05/29 04:00:42;;;;;;;13.55;2.60;;;10.40;99.90;;;;;;5119025;28;20039;-57
2023/05/29 04:03:08;;;;;;;13.50;2.38;;;10.40;99.90;;;;;;5120610;28;20033;-57
2023/05/29 04:05:34;;;;;;;14.88;2.15;;;10.50;99.90;;;;;;5119611;28;20043;-57
2023/05/29 04:08:00;;;;;;;13.68;2.40;;;10.40;99.90;;;;;;5120946;28;20048;-57
2023/05/29 04:10:26;;;;;;;13.73;2.72;;;10.60;99.90;;;;;;5119647;28;20044;-58
2023/05/29 04:12:52;;;;;;;13.30;3.38;;;10.60;99.90;;;;;;5120251;28;20046;-57
2023/05/29 04:15:17;;;;;;;13.98;2.60;;;10.60;99.90;;;;;;5119899;28;20043;-57
2023/05/29 04:17:43;;;;;;;11.07;2.90;;;10.60;99.90;;;;;;5119665;28;20046;-57
2023/05/29 04:20:09;;;;;;;12.07;2.75;;;10.60;99.90;;;;;;5120281;28;20046;-57
2023/05/29 04:22:38;;;;;;;14.57;2.85;;;10.60;99.90;;;;;;5119226;28;20043;-57
2023/05/29 04:25:04;;;;;;;14.98;2.92;;;10.70;99.90;;;;;;5120468;28;20117;-58
2023/05/29 04:27:32;;;;;;;12.80;2.35;;;10.60;99.90;;;;;;5119168;28;20103;-57
2023/05/29 04:29:58;;;;;;;13.52;2.75;;;10.70;99.90;;;;;;5118619;28;20054;-58
2023/05/29 04:32:24;;;;;;;12.45;2.63;;;10.60;99.90;;;;;;5118819;28;20047;-57
2023/05/29 04:34:51;;;;;;;13.65;2.42;;;10.50;99.90;;;;;;5118918;28;20054;-57
2023/05/29 04:37:17;;;;;;;12.05;2.45;;;10.60;99.90;;;;;;5119572;28;20036;-57
2023/05/29 04:39:43;;;;;;;13.57;2.50;;;10.70;99.90;;;;;;5118497;28;20039;-57
2023/05/29 04:42:09;;;;;;;12.43;2.03;;;10.60;99.90;;;;;;5120254;28;20040;-57
2023/05/29 04:44:35;;;;;;;14.82;2.65;;;10.60;99.90;;;;;;5118594;28;20432;-57
2023/05/29 04:47:02;;;;;;;10.50;2.42;;;10.70;99.90;;;;;;5119592;28;20672;-58
2023/05/29 04:49:28;;;;;;;12.73;3.13;;;10.70;99.90;;;;;;5118853;28;20032;-57
2023/05/29 04:51:54;;;;;;;11.63;2.47;;;10.60;99.90;;;;;;5118712;28;20119;-58
2023/05/29 04:54:22;;;;;;;16.70;3.10;;;10.60;99.90;;;;;;5118642;28;20073;-56
2023/05/29 04:56:47;;;;;;;14.60;2.88;;;10.70;99.90;;;;;;5118320;28;20051;-57
2023/05/29 04:59:13;;;;;;;11.23;2.42;;;10.70;99.90;;;;;;5119768;28;20494;-56
2023/05/29 05:01:39;;;;;;;11.20;2.72;;;10.80;99.90;;;;;;5118055;28;20039;-58
2023/05/29 05:04:05;;;;;;;15.95;2.63;;;10.80;99.90;;;;;;5119372;28;20422;-57
2023/05/29 05:06:31;;;;;;;10.30;2.58;;;11.00;99.90;;;;;;5118609;28;20445;-58
2023/05/29 05:08:56;;;;;;;11.68;2.28;;;11.00;99.90;;;;;;5118467;28;20070;-57
2023/05/29 05:11:23;;;;;;;17.02;3.22;;;11.10;99.90;;;;;;5120812;28;20048;-57
2023/05/29 05:13:49;;;;;;;16.90;3.00;;;11.10;99.90;;;;;;5122423;28;20055;-57
2023/05/29 05:16:16;;;;;;;12.50;3.40;;;11.10;99.90;;;;;;5123574;28;20375;-57
2023/05/29 05:18:44;;;;;;;15.60;3.25;;;11.10;99.90;;;;;;5122452;28;20054;-58
2023/05/29 05:21:10;;;;;;;13.60;2.78;;;11.20;99.90;;;;;;5123325;28;20051;-58
2023/05/29 05:23:36;;;;;;;17.48;2.53;;;11.20;99.90;;;;;;5122519;27;20043;-57
2023/05/29 05:26:02;;;;;;;14.38;2.85;;;11.40;99.90;;;;;;5122672;28;20040;-57
2023/05/29 05:28:28;;;;;;;12.98;2.97;;;11.40;99.90;;;;;;5122880;28;20168;-57
2023/05/29 05:30:53;;;;;;;16.58;3.25;;;11.50;99.90;;;;;;5122373;28;20047;-57
2023/05/29 05:33:19;;;;;;;15.07;3.83;;;11.60;99.90;;;;;;5121979;28;20460;-58
2023/05/29 05:35:45;;;;;;;13.68;3.30;;;11.70;99.90;;;;;;5121813;28;20079;-57
2023/05/29 05:38:12;;;;;;;17.35;3.28;;;11.60;99.90;;;;;;5123118;28;20050;-58
2023/05/29 05:40:37;;;;;;;16.33;3.80;;;11.50;99.90;;;;;;5122429;28;20090;-57
2023/05/29 05:43:03;;;;;;;15.18;3.08;;;11.40;99.90;;;;;;5122742;28;20044;-57
2023/05/29 05:45:29;;;;;;;16.08;2.85;;;11.40;99.90;;;;;;5122245;28;20052;-57
2023/05/29 05:47:56;;;;;;;17.20;3.58;;;11.40;99.90;;;;;;5122540;28;20066;-58
2023/05/29 05:50:22;;;;;;;15.80;3.35;;;11.50;99.90;;;;;;5122625;28;20050;-57
2023/05/29 05:52:47;;;;;;;23.60;4.65;;;11.50;99.90;;;;;;5122193;28;20079;-57
2023/05/29 05:55:13;;;;;;;16.75;3.58;;;11.50;99.90;;;;;;5122525;28;20079;-57
2023/05/29 05:57:39;;;;;;;18.90;3.88;;;11.40;99.90;;;;;;5121916;28;20060;-57
2023/05/29 06:00:14;;;;;;;17.48;3.47;;;11.60;99.90;;;;;;5122538;28;20099;-57
2023/05/29 06:02:42;;;;;;;20.10;3.55;;;11.60;99.90;;;;;;5122365;28;20050;-57
2023/05/29 06:05:09;;;;;;;16.05;3.53;;;11.60;99.90;;;;;;5121695;28;20073;-56
2023/05/29 06:07:35;;;;;;;15.13;3.60;;;11.50;99.90;;;;;;5122941;28;20043;-57
2023/05/29 06:10:01;;;;;;;16.02;3.15;;;11.50;99.90;;;;;;5122006;28;20051;-57
2023/05/29 06:12:27;;;;;;;18.90;3.38;;;11.70;99.90;;;;;;5122771;28;20073;-57
2023/05/29 06:14:53;;;;;;;17.13;3.38;;;11.80;99.90;;;;;;5121983;28;20043;-57
2023/05/29 06:17:18;;;;;;;15.88;3.53;;;11.90;99.90;;;;;;5122385;28;20556;-58
2023/05/29 06:19:44;;;;;;;15.63;3.47;;;12.10;99.90;;;;;;5121848;28;20100;-57
2023/05/29 06:22:10;;;;;;;19.20;3.78;;;12.30;99.90;;;;;;5120077;28;20054;-57
2023/05/29 06:24:35;;;;;;;20.45;4.15;;;12.30;99.90;;;;;;5122606;28;20054;-57
2023/05/29 06:27:01;;;;;;;15.05;3.22;;;12.40;99.90;;;;;;5121578;28;20044;-57
2023/05/29 06:29:27;;;;;;;16.35;3.13;;;12.60;99.90;;;;;;5122851;28;20135;-57
2023/05/29 06:31:53;;;;;;;9.50;3.60;;;12.60;99.90;;;;;;5121448;28;20042;-57
2023/05/29 06:34:18;;;;;;;15.30;4.82;;;12.60;99.90;;;;;;5121724;28;20479;-57
2023/05/29 06:36:44;;;;;;;19.23;3.88;;;12.50;99.90;;;;;;5121542;28;20039;-57
2023/05/29 06:39:11;;;;;;;18.38;3.40;;;12.60;99.90;;;;;;5121760;28;20078;-57
2023/05/29 06:41:37;;;;;;;15.63;3.58;;;12.60;99.90;;;;;;5121641;28;20067;-57
2023/05/29 06:44:03;;;;;;;17.77;4.95;;;12.60;99.90;;;;;;5121192;28;20043;-57
2023/05/29 06:46:28;;;;;;;15.57;2.80;;;12.60;99.90;;;;;;5122474;28;20061;-57
2023/05/29 06:48:54;;;;;;;22.48;3.50;;;12.40;99.90;;;;;;5121090;28;20054;-57
2023/05/29 06:51:20;;;;;;;19.33;3.78;;;12.50;99.90;;;;;;5121707;28;20052;-58
2023/05/29 06:53:45;;;;;;;17.08;3.63;;;12.60;99.90;;;;;;5121455;28;20097;-57
2023/05/29 06:56:11;;;;;;;17.50;2.95;;;12.50;99.90;;;;;;5120966;28;20052;-57
2023/05/29 06:58:37;;;;;;;18.35;3.35;;;12.50;99.90;;;;;;5121508;28;20095;-58
2023/05/29 07:01:02;;;;;;;15.48;3.42;;;12.30;99.90;;;;;;5119770;28;20838;-57
2023/05/29 07:03:28;;;;;;;19.73;3.75;;;12.40;99.90;;;;;;5122129;28;20047;-57
2023/05/29 07:05:55;;;;;;;18.92;4.13;;;12.40;99.90;;;;;;5121199;28;20039;-57
2023/05/29 07:08:21;;;;;;;16.75;3.33;;;12.50;99.90;;;;;;5120452;28;20043;-57
2023/05/29 07:10:48;;;;;;;17.63;3.58;;;12.70;99.90;;;;;;5121203;28;20036;-57
2023/05/29 07:13:17;;;;;;;17.73;3.60;;;12.70;99.90;;;;;;5121190;28;20057;-57
2023/05/29 07:15:43;;;;;;;16.90;3.03;;;12.70;99.90;;;;;;5121313;28;20110;-57
2023/05/29 07:18:09;;;;;;;15.40;3.00;;;12.80;99.90;;;;;;5120482;28;20487;-57
2023/05/29 07:20:36;;;;;;;12.30;3.38;;;12.80;99.90;;;;;;5121812;28;20205;-57
2023/05/29 07:23:02;;;;;;;16.45;3.42;;;12.80;99.90;;;;;;5120783;28;20478;-57
2023/05/29 07:25:28;;;;;;;14.57;3.42;;;12.80;99.90;;;;;;5121368;28;20050;-57
2023/05/29 07:27:53;;;;;;;15.52;3.20;;;12.80;99.90;;;;;;5119672;28;20036;-57
2023/05/29 07:30:19;;;;;;;16.27;3.83;;;12.90;99.90;;;;;;5119245;28;20635;-57
2023/05/29 07:32:45;;;;;;;13.43;3.53;;;12.80;99.90;;;;;;5120883;28;20039;-57
2023/05/29 07:35:11;;;;;;;18.98;3.35;;;12.90;99.90;;;;;;5119567;28;20130;-58
2023/05/29 07:37:36;;;;;;;15.23;3.13;;;13.10;99.90;;;;;;5121338;28;20067;-57
2023/05/29 07:40:06;;;;;;;18.00;3.72;;;13.20;99.90;;;;;;5120350;28;20035;-57
2023/05/29 07:42:33;;;;;;;17.10;3.40;;;13.40;99.90;;;;;;5121075;28;20047;-58
2023/05/29 07:44:58;;;;;;;17.48;3.80;;;13.60;99.90;;;;;;5120398;28;20054;-58
2023/05/29 07:47:24;;;;;;;16.90;3.90;;;13.80;99.90;;;;;;5120377;28;20040;-58
2023/05/29 07:49:50;;;;;;;17.15;3.25;;;13.70;99.90;;;;;;5119000;28;20483;-58
2023/05/29 07:52:15;;;;;;;16.27;3.15;;;13.90;99.90;;;;;;5120366;28;20066;-57
2023/05/29 07:54:41;;;;;;;13.50;3.33;;;13.80;99.90;;;;;;5120724;28;20046;-56
2023/05/29 07:57:09;;;;;;;15.10;3.25;;;13.70;99.90;;;;;;5119709;28;20043;-57
2023/05/29 07:59:41;;;;;;;17.85;4.20;;;13.60;99.90;;;;;;5120755;28;20058;-58
2023/05/29 08:02:07;;;;;;;19.73;3.30;;;13.60;99.90;;;;;;5120074;28;20071;-57
2023/05/29 08:04:33;;;;;;;13.88;3.60;;;13.70;99.90;;;;;;5119807;28;20051;-57
2023/05/29 08:07:05;;;;;;;22.27;5.13;;;13.60;99.90;;;;;;5120098;28;20051;-58
2023/05/29 08:09:31;;;;;;;16.60;3.80;;;13.50;99.90;;;;;;5118404;28;20039;-58
2023/05/29 08:11:57;;;;;;;19.90;3.35;;;13.60;99.90;;;;;;5120873;28;20116;-58
2023/05/29 08:14:22;;;;;;;16.50;3.60;;;13.60;99.90;;;;;;5119435;28;20051;-57
2023/05/29 08:16:48;;;;;;;18.10;3.03;;;13.70;99.90;;;;;;5120229;28;20139;-58
2023/05/29 08:19:14;;;;;;;17.38;3.50;;;13.70;99.90;;;;;;5119986;28;20044;-57
2023/05/29 08:21:40;;;;;;;17.13;4.00;;;13.70;99.90;;;;;;5119810;28;20100;-57
2023/05/29 08:24:06;;;;;;;13.77;2.92;;;13.70;99.90;;;;;;5118587;28;20044;-58
2023/05/29 08:26:32;;;;;;;16.92;3.35;;;13.90;99.90;;;;;;5119451;28;20295;-57
2023/05/29 08:28:58;;;;;;;18.67;4.22;;;13.80;99.90;;;;;;5120294;28;20047;-57
2023/05/29 08:31:25;;;;;;;19.85;3.55;;;13.90;99.90;;;;;;5119086;28;20342;-58
2023/05/29 08:33:51;;;;;;;22.70;4.88;;;13.70;99.90;;;;;;5120311;28;20044;-58
2023/05/29 08:36:17;;;;;;;17.08;2.90;;;13.90;99.90;;;;;;5119550;28;20035;-58
2023/05/29 08:38:43;;;;;;;17.55;3.70;;;13.80;99.90;;;;;;5119612;28;20027;-58
2023/05/29 08:41:14;;;;;;;14.90;3.42;;;13.90;99.90;;;;;;5119641;28;20040;-57
2023/05/29 08:43:42;;;;;;;18.50;2.92;;;13.90;99.90;;;;;;5119239;28;20044;-57
2023/05/29 08:46:09;;;;;;;21.23;3.60;;;14.00;99.90;;;;;;5119882;28;20054;-57
2023/05/29 08:48:39;;;;;;;22.10;3.45;;;14.00;99.90;;;;;;5118924;28;20062;-58
2023/05/29 08:51:07;;;;;;;18.30;3.42;;;13.90;99.90;;;;;;5119889;28;20035;-58
2023/05/29 08:53:33;;;;;;;21.60;3.45;;;13.90;99.90;;;;;;5119164;28;20047;-57
2023/05/29 08:56:02;;;;;;;19.27;3.30;;;13.80;99.90;;;;;;5118637;28;20048;-57
2023/05/29 08:58:28;;;;;;;16.88;3.67;;;13.70;99.90;;;;;;5119076;28;20138;-57
2023/05/29 09:00:55;;;;;;;16.42;3.58;;;13.80;99.90;;;;;;5118782;28;20048;-57
2023/05/29 09:03:22;;;;;;;14.95;4.32;;;13.50;99.90;;;;;;5120205;28;20048;-57
2023/05/29 09:05:48;;;;;;;19.80;4.55;;;13.70;99.90;;;;;;5118698;28;20044;-57
2023/05/29 09:08:15;;;;;;;23.25;5.25;;;13.70;99.90;;;;;;5119750;28;20043;-58
2023/05/29 09:10:43;;;;;;;17.17;4.65;;;13.80;99.90;;;;;;5118940;28;20054;-56
2023/05/29 09:13:09;;;;;;;16.63;3.38;;;13.70;99.90;;;;;;5119033;28;20047;-57
2023/05/29 09:15:36;;;;;;;15.50;3.50;;;13.70;99.90;;;;;;5119257;28;20047;-57
2023/05/29 09:18:04;;;;;;;16.80;3.45;;;13.90;99.90;;;;;;5118791;28;20040;-57
2023/05/29 09:20:30;;;;;;;20.80;5.25;;;14.00;99.90;;;;;;5120154;28;20367;-56
2023/05/29 09:22:56;;;;;;;15.38;3.40;;;13.90;99.90;;;;;;5118337;28;20070;-56
2023/05/29 09:25:27;;;;;;;12.65;3.15;;;13.90;99.90;;;;;;5119580;28;20107;-56
2023/05/29 09:28:05;;;;;;;17.15;4.65;;;14.10;99.90;;;;;;5118747;28;20051;-56
2023/05/29 09:30:44;;;;;;;14.45;3.20;;;13.90;99.90;;;;;;5118691;28;20071;-57
2023/05/29 09:33:12;;;;;;;15.32;3.53;;;13.80;99.90;;;;;;5119126;28;20043;-57
2023/05/29 09:35:48;;;;;;;14.75;3.80;;;14.10;99.90;;;;;;5118219;28;20075;-57
2023/05/29 09:38:16;;;;;;;21.15;3.35;;;14.10;99.90;;;;;;5119286;28;20054;-57
2023/05/29 09:40:42;;;;;;;19.13;3.63;;;14.20;99.90;;;;;;5116905;28;20044;-56
2023/05/29 09:43:17;;;;;;;17.10;4.28;;;14.40;99.90;;;;;;5118423;28;20491;-57
2023/05/29 09:45:44;;;;;;;17.13;4.25;;;14.50;99.90;;;;;;5118782;28;20032;-57
2023/05/29 09:48:15;;;;;;;14.43;3.58;;;14.40;99.90;;;;;;5118089;28;20039;-57
2023/05/29 09:50:47;;;;;;;19.52;3.63;;;14.40;99.90;;;;;;5119530;28;20097;-56
2023/05/29 09:53:26;;;;;;;17.48;3.67;;;14.20;99.90;;;;;;5118094;28;20059;-56
2023/05/29 09:55:54;;;;;;;17.55;3.40;;;14.40;99.90;;;;;;5118254;28;20055;-57
2023/05/29 09:58:20;;;;;;;17.92;3.03;;;14.30;99.90;;;;;;5120171;28;20075;-57
2023/05/29 10:00:48;;;;;;;19.15;3.53;;;14.50;99.90;;;;;;5122160;28;20036;-57
2023/05/29 10:03:15;;;;;;;16.00;3.30;;;14.60;99.90;;;;;;5122850;28;20032;-57
2023/05/29 10:05:52;;;;;;;14.85;2.83;;;14.70;99.90;;;;;;5120506;28;20106;-56
2023/05/29 10:08:19;;;;;;;16.50;3.47;;;14.60;99.90;;;;;;5122711;28;20112;-57
2023/05/29 10:10:56;;;;;;;13.77;3.67;;;14.70;99.90;;;;;;5122280;28;20044;-57
2023/05/29 10:13:24;;;;;;;19.13;3.58;;;14.70;99.90;;;;;;5122344;28;20047;-57
2023/05/29 10:15:52;;;;;;;20.02;3.90;;;14.60;99.90;;;;;;5122810;28;20047;-57
2023/05/29 10:18:32;;;;;;;16.05;2.85;;;14.70;99.90;;;;;;5121964;28;20054;-57
2023/05/29 10:20:59;;;;;;;17.13;3.67;;;14.60;99.90;;;;;;5122864;27;20040;-57
2023/05/29 10:23:28;;;;;;;19.88;3.60;;;14.70;99.90;;;;;;5121928;28;20039;-56
2023/05/29 10:26:00;;;;;;;15.55;3.22;;;14.70;99.90;;;;;;5121774;28;20044;-57
2023/05/29 10:28:26;;;;;;;17.15;4.50;;;14.80;99.90;;;;;;5122213;28;20106;-57
2023/05/29 10:31:08;;;;;;;14.23;3.38;;;14.60;99.90;;;;;;5120363;28;20083;-57
2023/05/29 10:33:40;;;;;;;17.30;3.58;;;14.80;99.90;;;;;;5122838;28;20040;-56
2023/05/29 10:36:18;;;;;;;17.63;4.07;;;14.80;99.90;;;;;;5120227;28;20043;-56
2023/05/29 10:38:45;;;;;;;15.20;3.72;;;14.70;99.90;;;;;;5121423;28;20608;-57
2023/05/29 10:41:26;;;;;;;24.63;4.53;;;14.80;99.90;;;;;;5121457;28;20532;-56
2023/05/29 10:43:54;;;;;;;16.90;3.40;;;14.80;99.90;;;;;;5121373;28;20054;-56
2023/05/29 10:46:20;;;;;;;15.77;3.25;;;14.70;99.90;;;;;;5122142;28;20059;-56
2023/05/29 10:48:49;;;;;;;17.92;3.55;;;14.70;99.90;;;;;;5121299;28;20063;-57
2023/05/29 10:51:26;;;;;;;15.25;3.80;;;15.00;99.90;;;;;;5121576;28;20622;-57
2023/05/29 10:53:52;;;;;;;17.45;3.08;;;14.90;99.90;;;;;;5121628;28;20048;-57
2023/05/29 10:56:28;;;;;;;19.85;3.55;;;15.20;99.90;;;;;;5120804;28;20196;-57
2023/05/29 10:58:57;;;;;;;15.88;3.42;;;15.10;99.90;;;;;;5121967;28;20054;-57
2023/05/29 11:01:27;;;;;;;19.52;3.40;;;15.00;99.90;;;;;;5120571;28;20032;-57
2023/05/29 11:04:15;;;;;;;13.65;3.13;;;15.00;99.90;;;;;;5121764;28;20032;-56
2023/05/29 11:06:41;;;;;;;15.00;3.50;;;15.00;99.90;;;;;;5121226;28;20055;-57
2023/05/29 11:09:34;;;;;;;16.17;3.45;;;14.90;99.90;;;;;;5120698;28;20106;-56
2023/05/29 11:12:33;;;;;;;14.68;3.03;;;15.10;99.90;;;;;;5120432;28;20628;-57
2023/05/29 11:15:13;;;;;;;14.50;3.20;;;15.30;99.90;;;;;;5120856;28;20100;-57
2023/05/29 11:17:39;;;;;;;17.25;3.38;;;15.60;99.90;;;;;;5120937;28;20082;-56
2023/05/29 11:20:07;;;;;;;15.52;3.40;;;15.70;99.90;;;;;;5121483;28;20043;-56
2023/05/29 11:22:48;;;;;;;13.07;3.05;;;15.60;99.90;;;;;;5120467;28;20039;-57
2023/05/29 11:25:15;;;;;;;16.83;3.17;;;15.90;99.90;;;;;;5121142;28;20046;-57
2023/05/29 11:27:42;;;;;;;16.85;2.92;;;15.90;99.90;;;;;;5120708;28;20036;-57
2023/05/29 11:30:08;;;;;;;15.98;2.72;;;15.80;99.90;;;;;;5120398;28;20059;-57
2023/05/29 11:32:36;;;;;;;18.85;3.58;;;15.70;99.90;;;;;;5120347;28;20070;-57
2023/05/29 11:35:08;;;;;;;18.95;3.13;;;15.80;99.90;;;;;;5120211;28;20058;-57
2023/05/29 11:37:45;;;;;;;16.65;2.97;;;16.00;99.90;;;;;;5121184;28;20077;-57
2023/05/29 11:40:12;;;;;;;15.38;3.50;;;16.00;99.90;;;;;;5120139;28;20123;-56
2023/05/29 11:42:44;;;;;;;15.40;3.25;;;16.10;99.90;;;;;;5120257;28;20107;-57
2023/05/29 11:45:20;;;;;;;13.82;2.70;;;16.10;99.90;;;;;;5120140;28;20127;-56
2023/05/29 11:47:58;;;;;;;16.50;3.80;;;16.10;99.90;;;;;;5119920;28;20093;-58
2023/05/29 11:50:28;;;;;;;14.68;3.47;;;16.10;99.90;;;;;;5120923;28;20087;-57
2023/05/29 11:52:56;;;;;;;16.17;3.33;;;16.20;99.90;;;;;;5119605;28;20048;-57
2023/05/29 11:55:22;;;;;;;15.55;4.28;;;15.90;99.90;;;;;;5120250;28;20169;-57
2023/05/29 11:57:56;;;;;;;15.00;3.35;;;15.90;99.90;;;;;;5120349;28;20066;-57
2023/05/29 12:00:22;;;;;;;12.10;3.63;;;15.90;99.90;;;;;;5120004;28;20485;-57
2023/05/29 12:02:49;;;;;;;18.45;3.60;;;16.00;99.90;;;;;;5120702;28;20547;-56
2023/05/29 12:05:18;;;;;;;12.45;2.85;;;15.90;99.90;;;;;;5118426;28;20051;-57
2023/05/29 12:07:56;;;;;;;15.25;3.50;;;16.00;99.90;;;;;;5120906;28;20039;-57
2023/05/29 12:10:22;;;;;;;13.50;3.28;;;16.20;99.90;;;;;;5119854;28;20047;-57
2023/05/29 12:12:51;;;;;;;15.23;3.10;;;16.20;99.90;;;;;;5120058;28;20125;-57
2023/05/29 12:15:18;;;;;;;12.10;2.97;;;16.20;99.90;;;;;;5120087;28;20043;-57
2023/05/29 12:17:45;;;;;;;14.43;3.33;;;16.30;99.90;;;;;;5119513;28;20047;-57
2023/05/29 12:20:13;;;;;;;15.55;6.47;;;16.10;99.90;;;;;;5119361;28;20044;-57
2023/05/29 12:22:40;;;;;;;14.77;3.65;;;15.80;99.90;;;;;;5119115;28;20058;-57
2023/05/29 12:25:14;;;;;;;16.20;3.33;;;16.20;99.90;;;;;;5118695;28;20062;-57
2023/05/29 12:27:42;;;;;;;15.27;3.08;;;16.40;99.90;;;;;;5119326;28;20118;-57
2023/05/29 12:30:14;;;;;;;19.63;4.32;;;16.20;99.90;;;;;;5117638;28;20049;-60
2023/05/29 12:32:43;;;;;;;18.88;3.10;;;16.00;99.90;;;;;;5116066;28;20104;-56
2023/05/29 12:35:18;;;;;;;11.38;2.40;;;16.10;99.90;;;;;;5118060;28;20074;-57
2023/05/29 12:37:55;;;;;;;15.02;3.08;;;15.80;99.90;;;;;;5119182;28;20105;-56
2023/05/29 12:40:28;;;;;;;11.63;2.38;;;16.00;99.90;;;;;;5118568;28;20043;-57
2023/05/29 12:42:56;;;;;;;11.43;2.88;;;15.80;99.90;;;;;;5118789;28;20044;-57